sensor_id;sensor_type;location;lat;lon;timestamp;pressure;altitude;pressure_sealevel;temperature;humidity
76973;BME280;65907;53.640;10.050;2023-12-20T00:01:09;100492.50;;;20.44;43.47
76973;BME280;65907;53.640;10.050;2023-12-20T00:03:34;100497.59;;;20.45;43.47
76973;BME280;65907;53.640;10.050;2023-12-20T00:05:59;100494.28;;;20.43;43.35
76973;BME280;65907;53.640;10.050;2023-12-20T00:08:24;100496.88;;;20.43;43.60
76973;BME280;65907;53.640;10.050;2023-12-20T00:10:50;100492.34;;;20.45;43.15
76973;BME280;65907;53.640;10.050;2023-12-20T00:13:15;100494.28;;;20.43;43.47
76973;BME280;65907;53.640;10.050;2023-12-20T00:15:40;100503.19;;;20.41;43.52
76973;BME280;65907;53.640;10.050;2023-12-20T00:18:05;100505.09;;;20.39;43.53
76973;BME280;65907;53.640;10.050;2023-12-20T00:20:30;100509.78;;;20.35;43.57
76973;BME280;65907;53.640;10.050;2023-12-20T00:22:56;100507.84;;;20.37;43.44
76973;BME280;65907;53.640;10.050;2023-12-20T00:25:25;100522.84;;;20.35;43.79
76973;BME280;65907;53.640;10.050;2023-12-20T00:27:50;100518.69;;;20.32;43.52
76973;BME280;65907;53.640;10.050;2023-12-20T00:30:16;100513.84;;;20.28;43.67
76973;BME280;65907;53.640;10.050;2023-12-20T00:32:41;100521.19;;;20.34;43.50
76973;BME280;65907;53.640;10.050;2023-12-20T00:35:11;100532.00;;;20.29;43.81
76973;BME280;65907;53.640;10.050;2023-12-20T00:37:36;100529.50;;;20.28;43.84
76973;BME280;65907;53.640;10.050;2023-12-20T00:40:01;100520.97;;;20.26;43.65
76973;BME280;65907;53.640;10.050;2023-12-20T00:42:27;100518.78;;;20.21;43.63
76973;BME280;65907;53.640;10.050;2023-12-20T00:44:52;100530.03;;;20.22;43.94
76973;BME280;65907;53.640;10.050;2023-12-20T00:47:17;100529.75;;;20.25;43.72
76973;BME280;65907;53.640;10.050;2023-12-20T00:49:43;100526.19;;;20.26;43.55
76973;BME280;65907;53.640;10.050;2023-12-20T00:52:08;100527.56;;;20.20;43.62
76973;BME280;65907;53.640;10.050;2023-12-20T00:54:33;100528.25;;;20.22;43.62
76973;BME280;65907;53.640;10.050;2023-12-20T00:56:59;100529.31;;;20.19;43.39
76973;BME280;65907;53.640;10.050;2023-12-20T00:59:24;100527.41;;;20.22;43.61
76973;BME280;65907;53.640;10.050;2023-12-20T01:01:49;100521.50;;;20.19;43.65
76973;BME280;65907;53.640;10.050;2023-12-20T01:04:15;100515.31;;;20.20;43.62
76973;BME280;65907;53.640;10.050;2023-12-20T01:06:40;100515.56;;;20.17;43.54
76973;BME280;65907;53.640;10.050;2023-12-20T01:09:06;100518.19;;;20.17;43.66
76973;BME280;65907;53.640;10.050;2023-12-20T01:11:31;100520.91;;;20.16;43.45
76973;BME280;65907;53.640;10.050;2023-12-20T01:13:56;100514.19;;;20.13;43.47
76973;BME280;65907;53.640;10.050;2023-12-20T01:16:21;100520.91;;;20.16;43.80
76973;BME280;65907;53.640;10.050;2023-12-20T01:18:49;100516.78;;;20.13;43.63
76973;BME280;65907;53.640;10.050;2023-12-20T01:21:14;100514.19;;;20.13;43.56
76973;BME280;65907;53.640;10.050;2023-12-20T01:23:39;100516.91;;;20.12;43.66
76973;BME280;65907;53.640;10.050;2023-12-20T01:26:04;100523.66;;;20.14;43.55
76973;BME280;65907;53.640;10.050;2023-12-20T01:28:30;100520.72;;;20.08;43.69
76973;BME280;65907;53.640;10.050;2023-12-20T01:30:55;100530.47;;;20.05;43.69
76973;BME280;65907;53.640;10.050;2023-12-20T01:33:23;100532.00;;;20.08;43.51
76973;BME280;65907;53.640;10.050;2023-12-20T01:35:48;100532.00;;;20.08;43.56
76973;BME280;65907;53.640;10.050;2023-12-20T01:38:14;100533.53;;;20.11;43.66
76973;BME280;65907;53.640;10.050;2023-12-20T01:40:41;100540.66;;;20.09;43.53
76973;BME280;65907;53.640;10.050;2023-12-20T01:43:07;100548.03;;;20.03;43.63
76973;BME280;65907;53.640;10.050;2023-12-20T01:45:33;100547.19;;;20.03;43.67
76973;BME280;65907;53.640;10.050;2023-12-20T01:47:59;100535.94;;;20.02;43.77
76973;BME280;65907;53.640;10.050;2023-12-20T01:50:24;100527.28;;;20.02;43.70
76973;BME280;65907;53.640;10.050;2023-12-20T01:52:50;100534.84;;;20.05;43.35
76973;BME280;65907;53.640;10.050;2023-12-20T01:55:17;100534.03;;;20.04;43.77
76973;BME280;65907;53.640;10.050;2023-12-20T01:57:43;100531.94;;;19.98;43.72
76973;BME280;65907;53.640;10.050;2023-12-20T02:00:09;100541.28;;;20.01;43.81
76973;BME280;65907;53.640;10.050;2023-12-20T02:02:35;100535.94;;;20.02;43.77
76973;BME280;65907;53.640;10.050;2023-12-20T02:05:01;100533.91;;;20.06;43.65
76973;BME280;65907;53.640;10.050;2023-12-20T02:07:27;100535.25;;;20.00;43.60
76973;BME280;65907;53.640;10.050;2023-12-20T02:09:52;100540.81;;;20.07;43.25
76973;BME280;65907;53.640;10.050;2023-12-20T02:12:18;100531.69;;;20.01;43.55
76973;BME280;65907;53.640;10.050;2023-12-20T02:14:43;100528.13;;;20.02;43.68
76973;BME280;65907;53.640;10.050;2023-12-20T02:17:08;100521.72;;;19.95;43.62
76973;BME280;65907;53.640;10.050;2023-12-20T02:19:34;100514.38;;;20.00;43.66
76973;BME280;65907;53.640;10.050;2023-12-20T02:22:06;100510.91;;;20.00;43.47
76973;BME280;65907;53.640;10.050;2023-12-20T02:24:34;100504.41;;;19.94;43.54
76973;BME280;65907;53.640;10.050;2023-12-20T02:26:59;100494.34;;;19.89;43.67
76973;BME280;65907;53.640;10.050;2023-12-20T02:29:24;100503.72;;;19.92;43.64
76973;BME280;65907;53.640;10.050;2023-12-20T02:31:49;100510.59;;;19.93;43.41
76973;BME280;65907;53.640;10.050;2023-12-20T02:34:15;100499.69;;;19.88;43.63
76973;BME280;65907;53.640;10.050;2023-12-20T02:36:40;100507.88;;;19.95;43.56
76973;BME280;65907;53.640;10.050;2023-12-20T02:39:05;100499.19;;;19.94;43.39
76973;BME280;65907;53.640;10.050;2023-12-20T02:41:33;100501.94;;;19.92;43.42
76973;BME280;65907;53.640;10.050;2023-12-20T02:43:58;100495.41;;;19.87;43.45
76973;BME280;65907;53.640;10.050;2023-12-20T02:46:23;100508.47;;;19.87;43.72
76973;BME280;65907;53.640;10.050;2023-12-20T02:48:48;100512.19;;;19.84;43.62
76973;BME280;65907;53.640;10.050;2023-12-20T02:51:14;100504.78;;;19.89;43.46
76973;BME280;65907;53.640;10.050;2023-12-20T02:53:39;100505.59;;;19.90;43.54
76973;BME280;65907;53.640;10.050;2023-12-20T02:56:04;100497.44;;;19.83;43.51
76973;BME280;65907;53.640;10.050;2023-12-20T02:58:32;100490.47;;;19.84;43.70
76973;BME280;65907;53.640;10.050;2023-12-20T03:00:59;100491.31;;;19.84;43.54
76973;BME280;65907;53.640;10.050;2023-12-20T03:03:24;100491.31;;;19.84;43.43
76973;BME280;65907;53.640;10.050;2023-12-20T03:05:50;100491.16;;;19.86;43.33
76973;BME280;65907;53.640;10.050;2023-12-20T03:08:15;100484.66;;;19.80;43.46
76973;BME280;65907;53.640;10.050;2023-12-20T03:10:40;100480.88;;;19.84;43.33
76973;BME280;65907;53.640;10.050;2023-12-20T03:13:05;100473.97;;;19.83;43.31
76973;BME280;65907;53.640;10.050;2023-12-20T03:15:30;100477.78;;;19.79;43.57
76973;BME280;65907;53.640;10.050;2023-12-20T03:17:58;100473.41;;;19.80;43.54
76973;BME280;65907;53.640;10.050;2023-12-20T03:20:24;100468.31;;;19.78;43.49
76973;BME280;65907;53.640;10.050;2023-12-20T03:22:51;100469.00;;;19.80;43.38
76973;BME280;65907;53.640;10.050;2023-12-20T03:25:18;100465.56;;;19.80;43.34
76973;BME280;65907;53.640;10.050;2023-12-20T03:27:43;100458.44;;;19.82;43.50
76973;BME280;65907;53.640;10.050;2023-12-20T03:30:08;100465.69;;;19.78;43.56
76973;BME280;65907;53.640;10.050;2023-12-20T03:32:34;100450.03;;;19.78;43.52
76973;BME280;65907;53.640;10.050;2023-12-20T03:34:59;100442.22;;;19.78;43.38
76973;BME280;65907;53.640;10.050;2023-12-20T03:37:24;100436.81;;;19.70;43.59
76973;BME280;65907;53.640;10.050;2023-12-20T03:39:50;100435.75;;;19.72;43.24
76973;BME280;65907;53.640;10.050;2023-12-20T03:42:15;100436.56;;;19.73;43.23
76973;BME280;65907;53.640;10.050;2023-12-20T03:44:40;100437.63;;;19.70;43.34
76973;BME280;65907;53.640;10.050;2023-12-20T03:47:06;100440.97;;;19.72;43.30
76973;BME280;65907;53.640;10.050;2023-12-20T03:49:31;100443.78;;;19.69;43.28
76973;BME280;65907;53.640;10.050;2023-12-20T03:51:56;100446.28;;;19.71;43.26
76973;BME280;65907;53.640;10.050;2023-12-20T03:54:22;100433.50;;;19.68;43.45
76973;BME280;65907;53.640;10.050;2023-12-20T03:56:49;100437.06;;;19.67;43.09
76973;BME280;65907;53.640;10.050;2023-12-20T03:59:15;100431.16;;;19.65;43.43
76973;BME280;65907;53.640;10.050;2023-12-20T04:01:43;100426.63;;;19.67;43.52
76973;BME280;65907;53.640;10.050;2023-12-20T04:04:09;100435.16;;;19.69;43.53
76973;BME280;65907;53.640;10.050;2023-12-20T04:06:34;100438.56;;;19.69;43.01
76973;BME280;65907;53.640;10.050;2023-12-20T04:09:02;100431.44;;;19.71;43.04
76973;BME280;65907;53.640;10.050;2023-12-20T04:11:27;100435.66;;;19.62;43.19
76973;BME280;65907;53.640;10.050;2023-12-20T04:13:55;100443.78;;;19.69;43.02
76973;BME280;65907;53.640;10.050;2023-12-20T04:16:20;100428.28;;;19.68;43.38
76973;BME280;65907;53.640;10.050;2023-12-20T04:18:45;100429.25;;;19.67;42.99
76973;BME280;65907;53.640;10.050;2023-12-20T04:21:10;100427.69;;;19.64;43.29
76973;BME280;65907;53.640;10.050;2023-12-20T04:23:38;100425.69;;;19.68;42.90
76973;BME280;65907;53.640;10.050;2023-12-20T04:26:03;100430.75;;;19.69;42.97
76973;BME280;65907;53.640;10.050;2023-12-20T04:28:31;100425.69;;;19.68;43.09
76973;BME280;65907;53.640;10.050;2023-12-20T04:30:56;100427.69;;;19.64;43.11
76973;BME280;65907;53.640;10.050;2023-12-20T04:33:21;100426.50;;;19.68;43.18
76973;BME280;65907;53.640;10.050;2023-12-20T04:35:46;100414.88;;;19.72;42.88
76973;BME280;65907;53.640;10.050;2023-12-20T04:38:12;100423.19;;;19.66;43.11
76973;BME280;65907;53.640;10.050;2023-12-20T04:40:37;100407.69;;;19.65;43.05
76973;BME280;65907;53.640;10.050;2023-12-20T04:43:02;100411.78;;;19.67;42.83
76973;BME280;65907;53.640;10.050;2023-12-20T04:45:27;100397.50;;;19.61;42.99
76973;BME280;65907;53.640;10.050;2023-12-20T04:47:53;100398.91;;;19.66;42.90
76973;BME280;65907;53.640;10.050;2023-12-20T04:50:18;100400.81;;;19.63;42.94
76973;BME280;65907;53.640;10.050;2023-12-20T04:52:44;100408.38;;;19.67;42.91
76973;BME280;65907;53.640;10.050;2023-12-20T04:55:10;100411.09;;;19.65;42.91
76973;BME280;65907;53.640;10.050;2023-12-20T04:57:35;100412.31;;;19.61;42.87
76973;BME280;65907;53.640;10.050;2023-12-20T05:00:00;100421.69;;;19.63;42.76
76973;BME280;65907;53.640;10.050;2023-12-20T05:02:25;100405.06;;;19.65;42.93
76973;BME280;65907;53.640;10.050;2023-12-20T05:04:51;100407.53;;;19.66;42.82
76973;BME280;65907;53.640;10.050;2023-12-20T05:07:16;100395.44;;;19.65;42.79
76973;BME280;65907;53.640;10.050;2023-12-20T05:09:41;100396.97;;;19.68;42.98
76973;BME280;65907;53.640;10.050;2023-12-20T05:12:09;100385.28;;;19.62;43.06
76973;BME280;65907;53.640;10.050;2023-12-20T05:14:34;100398.19;;;19.63;42.71
76973;BME280;65907;53.640;10.050;2023-12-20T05:16:59;100400.91;;;19.62;42.75
76973;BME280;65907;53.640;10.050;2023-12-20T05:19:28;100403.63;;;19.60;42.69
76973;BME280;65907;53.640;10.050;2023-12-20T05:21:53;100415.75;;;19.61;42.38
76973;BME280;65907;53.640;10.050;2023-12-20T05:24:18;100410.59;;;19.71;42.45
76973;BME280;65907;53.640;10.050;2023-12-20T05:26:43;100407.47;;;19.77;42.78
76973;BME280;65907;53.640;10.050;2023-12-20T05:29:09;100409.47;;;19.85;42.22
76973;BME280;65907;53.640;10.050;2023-12-20T05:31:36;100393.81;;;19.85;41.96
76973;BME280;65907;53.640;10.050;2023-12-20T05:34:01;100400.91;;;19.83;42.11
76973;BME280;65907;53.640;10.050;2023-12-20T05:36:27;100390.94;;;19.88;41.97
76973;BME280;65907;53.640;10.050;2023-12-20T05:38:52;100394.34;;;19.89;41.89
76973;BME280;65907;53.640;10.050;2023-12-20T05:41:18;100400.34;;;20.01;41.53
76973;BME280;65907;53.640;10.050;2023-12-20T05:43:43;100404.34;;;20.05;41.64
76973;BME280;65907;53.640;10.050;2023-12-20T05:46:12;100397.25;;;20.07;41.15
76973;BME280;65907;53.640;10.050;2023-12-20T05:48:38;100410.31;;;20.17;41.29
76973;BME280;65907;53.640;10.050;2023-12-20T05:51:03;100404.66;;;20.12;41.12
76973;BME280;65907;53.640;10.050;2023-12-20T05:53:31;100395.09;;;20.22;41.12
76973;BME280;65907;53.640;10.050;2023-12-20T05:55:56;100398.25;;;20.26;40.64
76973;BME280;65907;53.640;10.050;2023-12-20T05:58:21;100395.59;;;20.16;40.84
76973;BME280;65907;53.640;10.050;2023-12-20T06:00:47;100409.13;;;20.21;40.88
76973;BME280;65907;53.640;10.050;2023-12-20T06:03:13;100419.59;;;20.31;40.73
76973;BME280;65907;53.640;10.050;2023-12-20T06:05:39;100404.66;;;20.43;40.86
76973;BME280;65907;53.640;10.050;2023-12-20T06:08:04;100408.63;;;20.37;41.46
76973;BME280;65907;53.640;10.050;2023-12-20T06:10:32;100386.28;;;20.13;42.03
76973;BME280;65907;53.640;10.050;2023-12-20T06:12:57;100393.50;;;20.31;41.61
76973;BME280;65907;53.640;10.050;2023-12-20T06:15:23;100386.84;;;20.27;41.57
76973;BME280;65907;53.640;10.050;2023-12-20T06:17:51;100394.25;;;20.22;41.65
76973;BME280;65907;53.640;10.050;2023-12-20T06:20:16;100392.34;;;20.24;41.18
76973;BME280;65907;53.640;10.050;2023-12-20T06:22:42;100398.16;;;20.27;41.36
76973;BME280;65907;53.640;10.050;2023-12-20T06:25:07;100399.47;;;20.22;41.42
76973;BME280;65907;53.640;10.050;2023-12-20T06:27:32;100396.88;;;20.22;41.19
76973;BME280;65907;53.640;10.050;2023-12-20T06:29:57;100403.75;;;20.23;41.37
76973;BME280;65907;53.640;10.050;2023-12-20T06:32:24;100391.06;;;20.18;41.18
76973;BME280;65907;53.640;10.050;2023-12-20T06:34:49;100396.19;;;20.19;41.32
76973;BME280;65907;53.640;10.050;2023-12-20T06:37:14;100403.44;;;20.16;41.33
76973;BME280;65907;53.640;10.050;2023-12-20T06:39:40;100406.19;;;20.14;41.46
76973;BME280;65907;53.640;10.050;2023-12-20T06:42:05;100398.31;;;20.04;41.33
76973;BME280;65907;53.640;10.050;2023-12-20T06:44:32;100395.31;;;20.09;41.22
76973;BME280;65907;53.640;10.050;2023-12-20T06:46:58;100396.28;;;20.08;41.48
76973;BME280;65907;53.640;10.050;2023-12-20T06:49:23;100399.41;;;20.02;41.47
76973;BME280;65907;53.640;10.050;2023-12-20T06:51:48;100387.19;;;20.02;41.39
76973;BME280;65907;53.640;10.050;2023-12-20T06:54:16;100390.88;;;20.00;41.31
76973;BME280;65907;53.640;10.050;2023-12-20T06:56:43;100397.34;;;20.05;41.27
76973;BME280;65907;53.640;10.050;2023-12-20T06:59:11;100397.47;;;20.04;41.14
76973;BME280;65907;53.640;10.050;2023-12-20T07:01:36;100398.16;;;19.96;41.28
76973;BME280;65907;53.640;10.050;2023-12-20T07:04:05;100384.25;;;19.96;41.31
76973;BME280;65907;53.640;10.050;2023-12-20T07:06:30;100382.34;;;19.98;41.24
76973;BME280;65907;53.640;10.050;2023-12-20T07:08:55;100389.59;;;19.94;41.21
76973;BME280;65907;53.640;10.050;2023-12-20T07:11:21;100374.78;;;19.95;41.50
76973;BME280;65907;53.640;10.050;2023-12-20T07:13:46;100385.09;;;19.96;41.56
76973;BME280;65907;53.640;10.050;2023-12-20T07:16:11;100379.72;;;19.98;41.64
76973;BME280;65907;53.640;10.050;2023-12-20T07:18:38;100360.66;;;19.97;41.41
76973;BME280;65907;53.640;10.050;2023-12-20T07:21:06;100360.88;;;19.94;41.62
76973;BME280;65907;53.640;10.050;2023-12-20T07:23:33;100367.38;;;20.00;41.40
76973;BME280;65907;53.640;10.050;2023-12-20T07:25:58;100375.78;;;20.03;41.45
76973;BME280;65907;53.640;10.050;2023-12-20T07:28:23;100390.56;;;19.93;41.67
76973;BME280;65907;53.640;10.050;2023-12-20T07:30:49;100383.56;;;19.94;41.39
76973;BME280;65907;53.640;10.050;2023-12-20T07:33:15;100389.13;;;19.89;41.77
76973;BME280;65907;53.640;10.050;2023-12-20T07:35:40;100382.72;;;19.93;41.62
76973;BME280;65907;53.640;10.050;2023-12-20T07:38:05;100379.88;;;19.96;41.67
76973;BME280;65907;53.640;10.050;2023-12-20T07:40:31;100388.84;;;20.03;41.01
76973;BME280;65907;53.640;10.050;2023-12-20T07:42:59;100391.00;;;19.98;41.31
76973;BME280;65907;53.640;10.050;2023-12-20T07:45:24;100388.13;;;20.01;41.29
76973;BME280;65907;53.640;10.050;2023-12-20T07:47:49;100386.59;;;19.99;41.43
76973;BME280;65907;53.640;10.050;2023-12-20T07:50:15;100393.91;;;20.05;41.02
76973;BME280;65907;53.640;10.050;2023-12-20T07:52:40;100384.97;;;19.98;41.40
76973;BME280;65907;53.640;10.050;2023-12-20T07:55:06;100386.59;;;19.99;41.57
76973;BME280;65907;53.640;10.050;2023-12-20T07:57:31;100387.56;;;19.98;41.68
76973;BME280;65907;53.640;10.050;2023-12-20T07:59:56;100396.78;;;20.02;41.38
76973;BME280;65907;53.640;10.050;2023-12-20T08:02:21;100382.63;;;20.35;41.21
76973;BME280;65907;53.640;10.050;2023-12-20T08:04:46;100377.72;;;20.42;41.01
76973;BME280;65907;53.640;10.050;2023-12-20T08:07:12;100384.84;;;20.40;41.10
76973;BME280;65907;53.640;10.050;2023-12-20T08:09:37;100370.84;;;20.41;40.87
76973;BME280;65907;53.640;10.050;2023-12-20T08:12:02;100378.41;;;20.44;40.90
76973;BME280;65907;53.640;10.050;2023-12-20T08:14:28;100374.03;;;20.45;40.79
76973;BME280;65907;53.640;10.050;2023-12-20T08:16:53;100372.63;;;20.51;40.78
76973;BME280;65907;53.640;10.050;2023-12-20T08:19:18;100371.56;;;20.53;40.73
76973;BME280;65907;53.640;10.050;2023-12-20T08:21:43;100367.31;;;20.62;40.26
76973;BME280;65907;53.640;10.050;2023-12-20T08:24:08;100373.22;;;20.64;40.38
76973;BME280;65907;53.640;10.050;2023-12-20T08:26:34;100360.75;;;20.68;40.36
76973;BME280;65907;53.640;10.050;2023-12-20T08:29:01;100356.72;;;20.73;40.09
76973;BME280;65907;53.640;10.050;2023-12-20T08:31:29;100358.13;;;20.77;39.94
76973;BME280;65907;53.640;10.050;2023-12-20T08:33:57;100353.63;;;20.80;40.09
76973;BME280;65907;53.640;10.050;2023-12-20T08:36:22;100355.38;;;20.79;39.98
76973;BME280;65907;53.640;10.050;2023-12-20T08:38:48;100350.44;;;20.76;39.79
76973;BME280;65907;53.640;10.050;2023-12-20T08:41:13;100340.81;;;20.76;40.10
76973;BME280;65907;53.640;10.050;2023-12-20T08:43:41;100343.88;;;20.82;39.50
76973;BME280;65907;53.640;10.050;2023-12-20T08:46:06;100345.78;;;20.80;38.78
76973;BME280;65907;53.640;10.050;2023-12-20T08:48:31;100334.22;;;20.92;38.04
76973;BME280;65907;53.640;10.050;2023-12-20T08:50:57;100339.84;;;20.87;38.35
76973;BME280;65907;53.640;10.050;2023-12-20T08:53:22;100331.34;;;20.95;38.01
76973;BME280;65907;53.640;10.050;2023-12-20T08:55:47;100339.06;;;20.87;38.72
76973;BME280;65907;53.640;10.050;2023-12-20T08:58:13;100343.88;;;20.91;38.32
76973;BME280;65907;53.640;10.050;2023-12-20T09:00:38;100328.03;;;20.93;38.00
76973;BME280;65907;53.640;10.050;2023-12-20T09:03:05;100323.50;;;20.95;37.67
76973;BME280;65907;53.640;10.050;2023-12-20T09:05:31;100322.38;;;20.78;39.03
76973;BME280;65907;53.640;10.050;2023-12-20T09:07:56;100318.09;;;20.67;39.02
76973;BME280;65907;53.640;10.050;2023-12-20T09:10:21;100321.09;;;20.62;39.05
76973;BME280;65907;53.640;10.050;2023-12-20T09:12:50;100299.13;;;20.55;38.98
76973;BME280;65907;53.640;10.050;2023-12-20T09:15:16;100300.34;;;20.51;39.46
76973;BME280;65907;53.640;10.050;2023-12-20T09:17:41;100301.16;;;20.52;39.29
76973;BME280;65907;53.640;10.050;2023-12-20T09:20:09;100284.94;;;20.48;39.49
76973;BME280;65907;53.640;10.050;2023-12-20T09:22:34;100283.84;;;20.51;39.28
76973;BME280;65907;53.640;10.050;2023-12-20T09:24:59;100279.31;;;20.53;39.21
76973;BME280;65907;53.640;10.050;2023-12-20T09:27:25;100282.06;;;20.51;39.27
76973;BME280;65907;53.640;10.050;2023-12-20T09:29:51;100274.91;;;20.53;39.37
76973;BME280;65907;53.640;10.050;2023-12-20T09:32:18;100274.78;;;20.55;39.27
76973;BME280;65907;53.640;10.050;2023-12-20T09:34:45;100276.44;;;20.56;39.38
76973;BME280;65907;53.640;10.050;2023-12-20T09:37:10;100278.09;;;20.57;39.33
76973;BME280;65907;53.640;10.050;2023-12-20T09:39:37;100269.41;;;20.56;39.36
76973;BME280;65907;53.640;10.050;2023-12-20T09:42:03;100272.44;;;20.52;39.50
76973;BME280;65907;53.640;10.050;2023-12-20T09:44:29;100278.63;;;20.51;39.40
76973;BME280;65907;53.640;10.050;2023-12-20T09:46:55;100286.44;;;20.51;39.49
76973;BME280;65907;53.640;10.050;2023-12-20T09:49:21;100262.81;;;20.52;39.63
76973;BME280;65907;53.640;10.050;2023-12-20T09:51:47;100274.50;;;20.48;39.56
76973;BME280;65907;53.640;10.050;2023-12-20T09:54:13;100262.69;;;20.44;39.68
76973;BME280;65907;53.640;10.050;2023-12-20T09:56:39;100261.03;;;20.43;39.73
76973;BME280;65907;53.640;10.050;2023-12-20T09:59:06;100261.44;;;20.48;39.47
76973;BME280;65907;53.640;10.050;2023-12-20T10:01:34;100264.34;;;20.45;39.50
76973;BME280;65907;53.640;10.050;2023-12-20T10:04:00;100258.00;;;20.47;39.49
76973;BME280;65907;53.640;10.050;2023-12-20T10:06:25;100256.63;;;20.43;39.46
76973;BME280;65907;53.640;10.050;2023-12-20T10:08:50;100253.19;;;20.43;39.79
76973;BME280;65907;53.640;10.050;2023-12-20T10:11:16;100264.34;;;20.45;39.25
76973;BME280;65907;53.640;10.050;2023-12-20T10:13:41;100252.94;;;20.46;39.27
76973;BME280;65907;53.640;10.050;2023-12-20T10:16:06;100253.03;;;20.44;39.49
76973;BME280;65907;53.640;10.050;2023-12-20T10:18:32;100255.25;;;20.49;39.59
76973;BME280;65907;53.640;10.050;2023-12-20T10:20:57;100258.69;;;20.59;39.35
76973;BME280;65907;53.640;10.050;2023-12-20T10:23:23;100240.56;;;20.68;40.13
76973;BME280;65907;53.640;10.050;2023-12-20T10:25:57;100236.72;;;20.82;39.80
76973;BME280;65907;53.640;10.050;2023-12-20T10:28:25;100250.84;;;20.79;39.83
76973;BME280;65907;53.640;10.050;2023-12-20T10:30:54;100246.50;;;20.89;39.34
76973;BME280;65907;53.640;10.050;2023-12-20T10:33:26;100236.16;;;20.78;39.10
76973;BME280;65907;53.640;10.050;2023-12-20T10:35:52;100241.50;;;20.86;38.84
76973;BME280;65907;53.640;10.050;2023-12-20T10:38:17;100248.66;;;20.94;38.21
76973;BME280;65907;53.640;10.050;2023-12-20T10:40:42;100230.94;;;20.88;38.42
76973;BME280;65907;53.640;10.050;2023-12-20T10:43:09;100232.72;;;20.87;38.40
76973;BME280;65907;53.640;10.050;2023-12-20T10:45:35;100233.84;;;20.85;38.58
76973;BME280;65907;53.640;10.050;2023-12-20T10:48:01;100238.09;;;20.86;38.24
76973;BME280;65907;53.640;10.050;2023-12-20T10:50:27;100238.22;;;20.94;38.01
76973;BME280;65907;53.640;10.050;2023-12-20T10:52:53;100240.97;;;20.92;37.98
76973;BME280;65907;53.640;10.050;2023-12-20T10:55:21;100237.94;;;20.87;38.81
76973;BME280;65907;53.640;10.050;2023-12-20T10:57:46;100241.00;;;20.83;38.75
76973;BME280;65907;53.640;10.050;2023-12-20T11:00:15;100227.94;;;20.83;38.75
76973;BME280;65907;53.640;10.050;2023-12-20T11:02:42;100239.06;;;20.85;38.58
76973;BME280;65907;53.640;10.050;2023-12-20T11:07:39;100230.38;;;20.84;38.70
76973;BME280;65907;53.640;10.050;2023-12-20T11:10:22;100220.19;;;20.91;38.80
76973;BME280;65907;53.640;10.050;2023-12-20T11:15:28;100226.78;;;20.95;38.24
76973;BME280;65907;53.640;10.050;2023-12-20T11:17:54;100209.19;;;20.97;38.06
76973;BME280;65907;53.640;10.050;2023-12-20T11:20:20;100225.69;;;20.98;38.22
76973;BME280;65907;53.640;10.050;2023-12-20T11:22:56;100206.75;;;20.86;38.48
76973;BME280;65907;53.640;10.050;2023-12-20T11:25:22;100203.84;;;20.89;38.21
76973;BME280;65907;53.640;10.050;2023-12-20T11:30:45;100221.84;;;20.92;38.22
76973;BME280;65907;53.640;10.050;2023-12-20T11:33:11;100213.47;;;20.78;38.46
76973;BME280;65907;53.640;10.050;2023-12-20T11:35:37;100214.16;;;20.71;39.39
76973;BME280;65907;53.640;10.050;2023-12-20T11:38:07;100228.88;;;20.82;39.19
76973;BME280;65907;53.640;10.050;2023-12-20T11:40:33;100215.13;;;20.89;39.50
76973;BME280;65907;53.640;10.050;2023-12-20T11:42:58;100237.25;;;20.95;39.31
76973;BME280;65907;53.640;10.050;2023-12-20T11:45:24;100252.13;;;20.95;39.45
76973;BME280;65907;53.640;10.050;2023-12-20T11:47:50;100270.13;;;20.98;39.22
76973;BME280;65907;53.640;10.050;2023-12-20T11:50:15;100276.31;;;20.97;39.04
76973;BME280;65907;53.640;10.050;2023-12-20T11:52:40;100273.56;;;20.98;39.31
76973;BME280;65907;53.640;10.050;2023-12-20T11:55:06;100262.16;;;20.99;39.02
76973;BME280;65907;53.640;10.050;2023-12-20T11:57:31;100260.50;;;20.98;39.09
76973;BME280;65907;53.640;10.050;2023-12-20T11:59:57;100249.63;;;20.93;39.10
76973;BME280;65907;53.640;10.050;2023-12-20T12:02:22;100253.91;;;20.94;39.11
76973;BME280;65907;53.640;10.050;2023-12-20T12:04:49;100245.78;;;20.97;38.83
76973;BME280;65907;53.640;10.050;2023-12-20T12:07:15;100237.41;;;20.94;39.27
76973;BME280;65907;53.640;10.050;2023-12-20T12:09:40;100231.91;;;20.97;39.16
76973;BME280;65907;53.640;10.050;2023-12-20T12:12:08;100224.06;;;20.97;39.00
76973;BME280;65907;53.640;10.050;2023-12-20T12:14:35;100223.91;;;20.98;39.09
76973;BME280;65907;53.640;10.050;2023-12-20T12:17:04;100219.25;;;20.92;39.54
76973;BME280;65907;53.640;10.050;2023-12-20T12:19:30;100220.47;;;20.98;39.15
76973;BME280;65907;53.640;10.050;2023-12-20T12:22:07;100227.06;;;20.92;39.16
76973;BME280;65907;53.640;10.050;2023-12-20T12:24:34;100224.47;;;20.92;39.05
76973;BME280;65907;53.640;10.050;2023-12-20T12:26:59;100221.84;;;20.92;38.90
76973;BME280;65907;53.640;10.050;2023-12-20T12:29:24;100218.94;;;20.95;39.17
76973;BME280;65907;53.640;10.050;2023-12-20T12:31:50;100229.84;;;21.00;39.14
76973;BME280;65907;53.640;10.050;2023-12-20T12:34:15;100234.63;;;20.95;39.17
76973;BME280;65907;53.640;10.050;2023-12-20T12:36:41;100225.03;;;20.96;38.98
76973;BME280;65907;53.640;10.050;2023-12-20T12:39:06;100215.38;;;20.96;39.21
76973;BME280;65907;53.640;10.050;2023-12-20T12:41:31;100215.81;;;21.01;38.99